sensor_id;sensor_type;location;lat;lon;timestamp;P1;durP1;ratioP1;P2;durP2;ratioP2
53052;SDS011;38934;52.690;6.184;2023-04-15T00:01:25;11.98;;;6.80;;
53052;SDS011;38934;52.690;6.184;2023-04-15T00:03:51;12.05;;;7.55;;
53052;SDS011;38934;52.690;6.184;2023-04-15T00:06:21;13.20;;;7.13;;
53052;SDS011;38934;52.690;6.184;2023-04-15T00:08:47;10.52;;;7.20;;
53052;SDS011;38934;52.690;6.184;2023-04-15T00:11:14;10.93;;;7.47;;
53052;SDS011;38934;52.690;6.184;2023-04-15T00:13:41;11.35;;;7.63;;
53052;SDS011;38934;52.690;6.184;2023-04-15T00:16:07;10.80;;;7.35;;
53052;SDS011;38934;52.690;6.184;2023-04-15T00:18:34;10.55;;;6.72;;
53052;SDS011;38934;52.690;6.184;2023-04-15T00:20:59;9.63;;;7.03;;
53052;SDS011;38934;52.690;6.184;2023-04-15T00:23:25;10.38;;;6.80;;
53052;SDS011;38934;52.690;6.184;2023-04-15T00:25:51;11.60;;;7.15;;
53052;SDS011;38934;52.690;6.184;2023-04-15T00:28:17;10.77;;;7.07;;
53052;SDS011;38934;52.690;6.184;2023-04-15T00:30:43;11.10;;;7.68;;
53052;SDS011;38934;52.690;6.184;2023-04-15T00:33:09;10.55;;;7.05;;
53052;SDS011;38934;52.690;6.184;2023-04-15T00:35:35;10.48;;;7.18;;
53052;SDS011;38934;52.690;6.184;2023-04-15T00:38:02;13.70;;;7.18;;
53052;SDS011;38934;52.690;6.184;2023-04-15T00:40:29;12.18;;;6.97;;
53052;SDS011;38934;52.690;6.184;2023-04-15T00:42:54;9.57;;;6.63;;
53052;SDS011;38934;52.690;6.184;2023-04-15T00:45:20;16.08;;;7.65;;
53052;SDS011;38934;52.690;6.184;2023-04-15T00:47:46;12.02;;;7.03;;
53052;SDS011;38934;52.690;6.184;2023-04-15T00:50:12;10.00;;;7.72;;
53052;SDS011;38934;52.690;6.184;2023-04-15T00:52:38;9.68;;;6.78;;
53052;SDS011;38934;52.690;6.184;2023-04-15T00:55:04;10.45;;;7.20;;
53052;SDS011;38934;52.690;6.184;2023-04-15T00:57:30;9.65;;;7.22;;
53052;SDS011;38934;52.690;6.184;2023-04-15T00:59:57;8.90;;;6.00;;
53052;SDS011;38934;52.690;6.184;2023-04-15T01:02:23;11.27;;;7.05;;
53052;SDS011;38934;52.690;6.184;2023-04-15T01:04:49;10.02;;;6.90;;
53052;SDS011;38934;52.690;6.184;2023-04-15T01:07:14;8.13;;;6.32;;
53052;SDS011;38934;52.690;6.184;2023-04-15T01:09:41;10.88;;;7.50;;
53052;SDS011;38934;52.690;6.184;2023-04-15T01:12:08;9.27;;;7.38;;
53052;SDS011;38934;52.690;6.184;2023-04-15T01:14:36;11.40;;;7.10;;
53052;SDS011;38934;52.690;6.184;2023-04-15T01:17:02;12.60;;;7.20;;
53052;SDS011;38934;52.690;6.184;2023-04-15T01:19:28;12.18;;;7.10;;
53052;SDS011;38934;52.690;6.184;2023-04-15T01:21:54;14.00;;;6.95;;
53052;SDS011;38934;52.690;6.184;2023-04-15T01:24:21;12.32;;;6.90;;
53052;SDS011;38934;52.690;6.184;2023-04-15T01:26:48;12.48;;;7.40;;
53052;SDS011;38934;52.690;6.184;2023-04-15T01:29:14;11.00;;;7.65;;
53052;SDS011;38934;52.690;6.184;2023-04-15T01:31:40;10.70;;;7.38;;
53052;SDS011;38934;52.690;6.184;2023-04-15T01:36:39;13.15;;;8.23;;
53052;SDS011;38934;52.690;6.184;2023-04-15T01:39:04;12.15;;;7.50;;
53052;SDS011;38934;52.690;6.184;2023-04-15T01:41:30;12.32;;;7.93;;
53052;SDS011;38934;52.690;6.184;2023-04-15T01:43:56;13.32;;;8.00;;
53052;SDS011;38934;52.690;6.184;2023-04-15T01:46:22;13.52;;;7.88;;
53052;SDS011;38934;52.690;6.184;2023-04-15T01:48:47;12.10;;;8.07;;
53052;SDS011;38934;52.690;6.184;2023-04-15T01:51:13;11.23;;;7.97;;
53052;SDS011;38934;52.690;6.184;2023-04-15T01:53:39;13.25;;;8.38;;
53052;SDS011;38934;52.690;6.184;2023-04-15T01:56:05;11.43;;;7.60;;
53052;SDS011;38934;52.690;6.184;2023-04-15T01:58:31;12.02;;;8.25;;
53052;SDS011;38934;52.690;6.184;2023-04-15T02:00:57;10.95;;;7.97;;
53052;SDS011;38934;52.690;6.184;2023-04-15T02:03:23;11.95;;;8.57;;
53052;SDS011;38934;52.690;6.184;2023-04-15T02:05:49;12.73;;;8.80;;
53052;SDS011;38934;52.690;6.184;2023-04-15T02:08:15;13.38;;;8.80;;
53052;SDS011;38934;52.690;6.184;2023-04-15T02:10:41;15.52;;;8.60;;
53052;SDS011;38934;52.690;6.184;2023-04-15T02:13:07;16.08;;;8.75;;
53052;SDS011;38934;52.690;6.184;2023-04-15T02:15:33;12.57;;;7.75;;
53052;SDS011;38934;52.690;6.184;2023-04-15T02:17:59;13.45;;;8.32;;
53052;SDS011;38934;52.690;6.184;2023-04-15T02:20:25;11.20;;;7.32;;
53052;SDS011;38934;52.690;6.184;2023-04-15T02:22:51;11.50;;;8.55;;
53052;SDS011;38934;52.690;6.184;2023-04-15T02:25:17;11.13;;;8.63;;
53052;SDS011;38934;52.690;6.184;2023-04-15T02:27:43;12.50;;;8.48;;
53052;SDS011;38934;52.690;6.184;2023-04-15T02:30:08;11.68;;;8.25;;
53052;SDS011;38934;52.690;6.184;2023-04-15T02:32:35;12.68;;;8.38;;
53052;SDS011;38934;52.690;6.184;2023-04-15T02:35:05;15.18;;;8.45;;
53052;SDS011;38934;52.690;6.184;2023-04-15T02:37:34;12.23;;;7.75;;
53052;SDS011;38934;52.690;6.184;2023-04-15T02:40:07;13.55;;;8.82;;
53052;SDS011;38934;52.690;6.184;2023-04-15T02:42:36;10.88;;;8.25;;
53052;SDS011;38934;52.690;6.184;2023-04-15T02:45:02;17.27;;;8.90;;
53052;SDS011;38934;52.690;6.184;2023-04-15T02:47:28;14.38;;;8.77;;
53052;SDS011;38934;52.690;6.184;2023-04-15T02:49:53;12.13;;;7.95;;
53052;SDS011;38934;52.690;6.184;2023-04-15T02:52:19;9.68;;;7.25;;
53052;SDS011;38934;52.690;6.184;2023-04-15T02:54:45;9.95;;;7.78;;
53052;SDS011;38934;52.690;6.184;2023-04-15T02:57:10;11.20;;;8.05;;
53052;SDS011;38934;52.690;6.184;2023-04-15T02:59:36;11.43;;;7.82;;
53052;SDS011;38934;52.690;6.184;2023-04-15T03:02:03;11.27;;;8.07;;
53052;SDS011;38934;52.690;6.184;2023-04-15T03:04:31;16.35;;;8.35;;
53052;SDS011;38934;52.690;6.184;2023-04-15T03:06:57;13.45;;;8.45;;
53052;SDS011;38934;52.690;6.184;2023-04-15T03:09:22;12.90;;;8.48;;
53052;SDS011;38934;52.690;6.184;2023-04-15T03:11:48;13.60;;;8.30;;
53052;SDS011;38934;52.690;6.184;2023-04-15T03:14:15;14.75;;;8.40;;
53052;SDS011;38934;52.690;6.184;2023-04-15T03:16:41;13.88;;;8.80;;
53052;SDS011;38934;52.690;6.184;2023-04-15T03:19:06;10.93;;;7.97;;
53052;SDS011;38934;52.690;6.184;2023-04-15T03:21:32;12.98;;;8.35;;
53052;SDS011;38934;52.690;6.184;2023-04-15T03:23:57;12.02;;;8.30;;
53052;SDS011;38934;52.690;6.184;2023-04-15T03:26:25;13.73;;;8.77;;
53052;SDS011;38934;52.690;6.184;2023-04-15T03:28:54;13.80;;;9.02;;
53052;SDS011;38934;52.690;6.184;2023-04-15T03:31:20;16.08;;;8.70;;
53052;SDS011;38934;52.690;6.184;2023-04-15T03:33:46;13.05;;;8.65;;
53052;SDS011;38934;52.690;6.184;2023-04-15T03:36:12;15.48;;;9.10;;
53052;SDS011;38934;52.690;6.184;2023-04-15T03:38:38;16.00;;;9.57;;
53052;SDS011;38934;52.690;6.184;2023-04-15T03:41:03;15.93;;;9.32;;
53052;SDS011;38934;52.690;6.184;2023-04-15T03:43:29;14.57;;;8.75;;
53052;SDS011;38934;52.690;6.184;2023-04-15T03:45:55;16.58;;;9.60;;
53052;SDS011;38934;52.690;6.184;2023-04-15T03:48:21;13.57;;;8.95;;
53052;SDS011;38934;52.690;6.184;2023-04-15T03:50:46;13.55;;;8.95;;
53052;SDS011;38934;52.690;6.184;2023-04-15T03:53:12;16.33;;;9.95;;
53052;SDS011;38934;52.690;6.184;2023-04-15T03:55:38;14.82;;;9.98;;
53052;SDS011;38934;52.690;6.184;2023-04-15T03:58:04;13.80;;;10.13;;
53052;SDS011;38934;52.690;6.184;2023-04-15T04:00:30;16.95;;;10.10;;
53052;SDS011;38934;52.690;6.184;2023-04-15T04:02:56;14.57;;;9.02;;
53052;SDS011;38934;52.690;6.184;2023-04-15T04:05:21;14.57;;;9.38;;
53052;SDS011;38934;52.690;6.184;2023-04-15T04:07:47;14.93;;;9.70;;
53052;SDS011;38934;52.690;6.184;2023-04-15T04:10:13;15.00;;;10.07;;
53052;SDS011;38934;52.690;6.184;2023-04-15T04:12:38;14.15;;;9.20;;
53052;SDS011;38934;52.690;6.184;2023-04-15T04:15:04;15.30;;;10.27;;
53052;SDS011;38934;52.690;6.184;2023-04-15T04:17:30;16.25;;;10.32;;
53052;SDS011;38934;52.690;6.184;2023-04-15T04:19:56;17.55;;;10.60;;
53052;SDS011;38934;52.690;6.184;2023-04-15T04:22:22;15.18;;;10.18;;
53052;SDS011;38934;52.690;6.184;2023-04-15T04:24:48;16.80;;;10.77;;
53052;SDS011;38934;52.690;6.184;2023-04-15T04:27:14;21.20;;;10.98;;
53052;SDS011;38934;52.690;6.184;2023-04-15T04:29:40;17.10;;;10.85;;
53052;SDS011;38934;52.690;6.184;2023-04-15T04:32:05;17.73;;;11.23;;
53052;SDS011;38934;52.690;6.184;2023-04-15T04:34:31;15.95;;;10.98;;
53052;SDS011;38934;52.690;6.184;2023-04-15T04:36:57;19.63;;;12.18;;
53052;SDS011;38934;52.690;6.184;2023-04-15T04:39:22;18.13;;;10.70;;
53052;SDS011;38934;52.690;6.184;2023-04-15T04:41:48;17.50;;;10.70;;
53052;SDS011;38934;52.690;6.184;2023-04-15T04:44:14;20.65;;;12.05;;
53052;SDS011;38934;52.690;6.184;2023-04-15T04:46:40;19.52;;;11.27;;
53052;SDS011;38934;52.690;6.184;2023-04-15T04:49:05;17.38;;;11.52;;
53052;SDS011;38934;52.690;6.184;2023-04-15T04:51:31;18.02;;;11.88;;
53052;SDS011;38934;52.690;6.184;2023-04-15T04:53:57;19.95;;;11.82;;
53052;SDS011;38934;52.690;6.184;2023-04-15T04:56:22;19.35;;;12.45;;
53052;SDS011;38934;52.690;6.184;2023-04-15T04:58:48;18.50;;;12.05;;
53052;SDS011;38934;52.690;6.184;2023-04-15T05:01:14;19.95;;;12.18;;
53052;SDS011;38934;52.690;6.184;2023-04-15T05:03:39;20.15;;;12.40;;
53052;SDS011;38934;52.690;6.184;2023-04-15T05:06:05;23.88;;;13.98;;
53052;SDS011;38934;52.690;6.184;2023-04-15T05:08:32;20.77;;;12.98;;
53052;SDS011;38934;52.690;6.184;2023-04-15T05:10:58;20.70;;;11.73;;
53052;SDS011;38934;52.690;6.184;2023-04-15T05:13:24;17.83;;;12.68;;
53052;SDS011;38934;52.690;6.184;2023-04-15T05:15:50;27.13;;;12.40;;
53052;SDS011;38934;52.690;6.184;2023-04-15T05:18:15;20.75;;;12.35;;
53052;SDS011;38934;52.690;6.184;2023-04-15T05:20:41;21.60;;;12.27;;
53052;SDS011;38934;52.690;6.184;2023-04-15T05:23:07;19.58;;;12.23;;
53052;SDS011;38934;52.690;6.184;2023-04-15T05:25:32;20.05;;;12.48;;
53052;SDS011;38934;52.690;6.184;2023-04-15T05:27:58;17.85;;;11.60;;
53052;SDS011;38934;52.690;6.184;2023-04-15T05:30:24;21.00;;;13.13;;
53052;SDS011;38934;52.690;6.184;2023-04-15T05:32:50;19.27;;;12.35;;
53052;SDS011;38934;52.690;6.184;2023-04-15T05:35:19;22.65;;;12.48;;
53052;SDS011;38934;52.690;6.184;2023-04-15T05:37:45;17.30;;;11.13;;
53052;SDS011;38934;52.690;6.184;2023-04-15T05:40:10;21.38;;;12.27;;
53052;SDS011;38934;52.690;6.184;2023-04-15T05:42:36;19.35;;;11.75;;
53052;SDS011;38934;52.690;6.184;2023-04-15T05:45:02;19.30;;;11.77;;
53052;SDS011;38934;52.690;6.184;2023-04-15T05:47:32;18.65;;;12.13;;
53052;SDS011;38934;52.690;6.184;2023-04-15T05:49:59;22.10;;;11.57;;
53052;SDS011;38934;52.690;6.184;2023-04-15T05:52:25;19.25;;;12.15;;
53052;SDS011;38934;52.690;6.184;2023-04-15T05:54:51;18.83;;;11.82;;
53052;SDS011;38934;52.690;6.184;2023-04-15T05:57:16;19.75;;;12.60;;
53052;SDS011;38934;52.690;6.184;2023-04-15T05:59:42;18.25;;;12.02;;
53052;SDS011;38934;52.690;6.184;2023-04-15T06:02:08;20.15;;;12.48;;
53052;SDS011;38934;52.690;6.184;2023-04-15T06:04:34;21.50;;;12.43;;
53052;SDS011;38934;52.690;6.184;2023-04-15T06:07:01;20.23;;;12.57;;
53052;SDS011;38934;52.690;6.184;2023-04-15T06:09:26;21.70;;;12.02;;
53052;SDS011;38934;52.690;6.184;2023-04-15T06:11:53;19.80;;;11.82;;
53052;SDS011;38934;52.690;6.184;2023-04-15T06:14:18;19.15;;;12.27;;
53052;SDS011;38934;52.690;6.184;2023-04-15T06:16:44;21.27;;;12.57;;
53052;SDS011;38934;52.690;6.184;2023-04-15T06:19:10;21.20;;;11.30;;
53052;SDS011;38934;52.690;6.184;2023-04-15T06:21:36;18.55;;;11.55;;
53052;SDS011;38934;52.690;6.184;2023-04-15T06:24:02;17.38;;;11.50;;
53052;SDS011;38934;52.690;6.184;2023-04-15T06:26:28;18.17;;;11.90;;
53052;SDS011;38934;52.690;6.184;2023-04-15T06:28:53;16.90;;;11.35;;
53052;SDS011;38934;52.690;6.184;2023-04-15T06:31:19;18.83;;;11.48;;
53052;SDS011;38934;52.690;6.184;2023-04-15T06:33:45;19.33;;;12.48;;
53052;SDS011;38934;52.690;6.184;2023-04-15T06:36:11;19.33;;;12.80;;
53052;SDS011;38934;52.690;6.184;2023-04-15T06:38:39;19.15;;;11.70;;
53052;SDS011;38934;52.690;6.184;2023-04-15T06:41:05;16.98;;;11.48;;
53052;SDS011;38934;52.690;6.184;2023-04-15T06:43:31;19.10;;;11.52;;
53052;SDS011;38934;52.690;6.184;2023-04-15T06:45:57;17.70;;;11.90;;
53052;SDS011;38934;52.690;6.184;2023-04-15T06:48:23;17.73;;;11.45;;
53052;SDS011;38934;52.690;6.184;2023-04-15T06:50:48;18.70;;;10.90;;
53052;SDS011;38934;52.690;6.184;2023-04-15T06:53:14;16.80;;;10.90;;
53052;SDS011;38934;52.690;6.184;2023-04-15T06:55:40;16.10;;;10.77;;
53052;SDS011;38934;52.690;6.184;2023-04-15T06:58:06;16.42;;;11.35;;
53052;SDS011;38934;52.690;6.184;2023-04-15T07:00:32;18.83;;;11.43;;
53052;SDS011;38934;52.690;6.184;2023-04-15T07:02:58;18.02;;;11.13;;
53052;SDS011;38934;52.690;6.184;2023-04-15T07:05:28;17.50;;;10.82;;
53052;SDS011;38934;52.690;6.184;2023-04-15T07:07:55;16.25;;;10.95;;
53052;SDS011;38934;52.690;6.184;2023-04-15T07:10:21;15.73;;;10.02;;
53052;SDS011;38934;52.690;6.184;2023-04-15T07:12:47;17.15;;;10.88;;
53052;SDS011;38934;52.690;6.184;2023-04-15T07:15:12;14.48;;;10.23;;
53052;SDS011;38934;52.690;6.184;2023-04-15T07:17:39;15.93;;;10.10;;
53052;SDS011;38934;52.690;6.184;2023-04-15T07:20:06;14.13;;;9.57;;
53052;SDS011;38934;52.690;6.184;2023-04-15T07:22:32;15.15;;;10.05;;
53052;SDS011;38934;52.690;6.184;2023-04-15T07:24:58;16.23;;;9.60;;
53052;SDS011;38934;52.690;6.184;2023-04-15T07:27:23;15.63;;;9.75;;
53052;SDS011;38934;52.690;6.184;2023-04-15T07:29:49;16.83;;;10.82;;
53052;SDS011;38934;52.690;6.184;2023-04-15T07:32:16;12.88;;;9.18;;
53052;SDS011;38934;52.690;6.184;2023-04-15T07:34:42;15.20;;;10.07;;
53052;SDS011;38934;52.690;6.184;2023-04-15T07:37:08;14.70;;;9.30;;
53052;SDS011;38934;52.690;6.184;2023-04-15T07:39:34;14.02;;;9.63;;
53052;SDS011;38934;52.690;6.184;2023-04-15T07:42:00;13.02;;;9.02;;
53052;SDS011;38934;52.690;6.184;2023-04-15T07:44:26;13.20;;;9.15;;
53052;SDS011;38934;52.690;6.184;2023-04-15T07:46:52;12.98;;;8.90;;
53052;SDS011;38934;52.690;6.184;2023-04-15T07:49:17;13.20;;;8.80;;
53052;SDS011;38934;52.690;6.184;2023-04-15T07:51:45;11.57;;;8.75;;
53052;SDS011;38934;52.690;6.184;2023-04-15T07:54:17;13.88;;;8.23;;
53052;SDS011;38934;52.690;6.184;2023-04-15T07:56:42;12.68;;;7.53;;
53052;SDS011;38934;52.690;6.184;2023-04-15T07:59:11;11.18;;;7.13;;
53052;SDS011;38934;52.690;6.184;2023-04-15T08:01:58;10.13;;;6.90;;
53052;SDS011;38934;52.690;6.184;2023-04-15T08:04:30;11.48;;;7.47;;
53052;SDS011;38934;52.690;6.184;2023-04-15T08:06:56;10.40;;;7.32;;
53052;SDS011;38934;52.690;6.184;2023-04-15T08:09:25;11.25;;;7.78;;
53052;SDS011;38934;52.690;6.184;2023-04-15T08:11:56;11.77;;;7.03;;
53052;SDS011;38934;52.690;6.184;2023-04-15T08:14:44;9.75;;;7.32;;
53052;SDS011;38934;52.690;6.184;2023-04-15T08:17:10;9.65;;;7.13;;
53052;SDS011;38934;52.690;6.184;2023-04-15T08:19:36;11.30;;;6.85;;
53052;SDS011;38934;52.690;6.184;2023-04-15T08:22:02;10.65;;;8.02;;
53052;SDS011;38934;52.690;6.184;2023-04-15T08:24:28;11.15;;;7.35;;
53052;SDS011;38934;52.690;6.184;2023-04-15T08:26:58;13.20;;;7.97;;
53052;SDS011;38934;52.690;6.184;2023-04-15T08:29:29;10.73;;;7.70;;
53052;SDS011;38934;52.690;6.184;2023-04-15T08:32:10;11.73;;;7.50;;
53052;SDS011;38934;52.690;6.184;2023-04-15T08:34:35;9.98;;;6.88;;
53052;SDS011;38934;52.690;6.184;2023-04-15T08:37:01;9.75;;;7.20;;
53052;SDS011;38934;52.690;6.184;2023-04-15T08:39:46;8.60;;;6.25;;
53052;SDS011;38934;52.690;6.184;2023-04-15T08:42:21;10.85;;;7.07;;
53052;SDS011;38934;52.690;6.184;2023-04-15T08:44:51;9.02;;;6.00;;
53052;SDS011;38934;52.690;6.184;2023-04-15T08:47:21;8.95;;;5.68;;
53052;SDS011;38934;52.690;6.184;2023-04-15T08:50:00;9.50;;;5.80;;
53052;SDS011;38934;52.690;6.184;2023-04-15T08:52:29;7.97;;;5.30;;
53052;SDS011;38934;52.690;6.184;2023-04-15T08:54:58;7.03;;;4.85;;
53052;SDS011;38934;52.690;6.184;2023-04-15T08:57:26;6.78;;;4.90;;
53052;SDS011;38934;52.690;6.184;2023-04-15T08:59:59;7.53;;;5.03;;
53052;SDS011;38934;52.690;6.184;2023-04-15T09:02:33;5.45;;;4.30;;
53052;SDS011;38934;52.690;6.184;2023-04-15T09:05:00;5.78;;;4.40;;
53052;SDS011;38934;52.690;6.184;2023-04-15T09:07:47;7.65;;;4.35;;
53052;SDS011;38934;52.690;6.184;2023-04-15T09:10:19;6.07;;;4.45;;
53052;SDS011;38934;52.690;6.184;2023-04-15T09:12:48;6.72;;;5.10;;
53052;SDS011;38934;52.690;6.184;2023-04-15T09:15:26;7.82;;;4.50;;
53052;SDS011;38934;52.690;6.184;2023-04-15T09:17:53;5.35;;;3.95;;
53052;SDS011;38934;52.690;6.184;2023-04-15T09:20:19;7.15;;;4.90;;
53052;SDS011;38934;52.690;6.184;2023-04-15T09:22:46;7.97;;;5.30;;
53052;SDS011;38934;52.690;6.184;2023-04-15T09:30:14;6.95;;;4.75;;
53052;SDS011;38934;52.690;6.184;2023-04-15T09:32:53;7.60;;;4.47;;
53052;SDS011;38934;52.690;6.184;2023-04-15T09:35:24;7.03;;;4.93;;
53052;SDS011;38934;52.690;6.184;2023-04-15T09:38:04;8.70;;;4.72;;
53052;SDS011;38934;52.690;6.184;2023-04-15T09:43:08;9.85;;;4.90;;
53052;SDS011;38934;52.690;6.184;2023-04-15T09:45:47;6.35;;;4.10;;
53052;SDS011;38934;52.690;6.184;2023-04-15T09:48:23;6.10;;;4.35;;
53052;SDS011;38934;52.690;6.184;2023-04-15T09:58:22;7.00;;;4.07;;
53052;SDS011;38934;52.690;6.184;2023-04-15T10:01:40;8.90;;;4.25;;
53052;SDS011;38934;52.690;6.184;2023-04-15T10:04:09;5.35;;;3.53;;
53052;SDS011;38934;52.690;6.184;2023-04-15T10:06:35;5.13;;;3.15;;
53052;SDS011;38934;52.690;6.184;2023-04-15T10:09:01;3.13;;;2.80;;
53052;SDS011;38934;52.690;6.184;2023-04-15T10:11:27;4.93;;;2.92;;
53052;SDS011;38934;52.690;6.184;2023-04-15T10:13:56;4.85;;;2.85;;
53052;SDS011;38934;52.690;6.184;2023-04-15T10:16:24;4.32;;;3.10;;
53052;SDS011;38934;52.690;6.184;2023-04-15T10:18:54;6.60;;;3.58;;
53052;SDS011;38934;52.690;6.184;2023-04-15T10:21:23;7.90;;;3.80;;
53052;SDS011;38934;52.690;6.184;2023-04-15T10:23:49;5.50;;;3.67;;
53052;SDS011;38934;52.690;6.184;2023-04-15T10:26:25;6.72;;;3.78;;
53052;SDS011;38934;52.690;6.184;2023-04-15T10:28:51;5.85;;;3.55;;
53052;SDS011;38934;52.690;6.184;2023-04-15T10:31:23;4.72;;;3.60;;
53052;SDS011;38934;52.690;6.184;2023-04-15T10:34:32;5.82;;;3.50;;
53052;SDS011;38934;52.690;6.184;2023-04-15T10:36:54;5.90;;;3.30;;
53052;SDS011;38934;52.690;6.184;2023-04-15T10:42:17;6.72;;;3.15;;
53052;SDS011;38934;52.690;6.184;2023-04-15T10:44:55;4.55;;;3.10;;
53052;SDS011;38934;52.690;6.184;2023-04-15T10:47:30;6.18;;;2.75;;
53052;SDS011;38934;52.690;6.184;2023-04-15T10:53:21;4.03;;;2.95;;
53052;SDS011;38934;52.690;6.184;2023-04-15T10:55:53;3.22;;;2.83;;
53052;SDS011;38934;52.690;6.184;2023-04-15T10:58:24;5.72;;;2.53;;
53052;SDS011;38934;52.690;6.184;2023-04-15T11:00:53;5.22;;;2.30;;
53052;SDS011;38934;52.690;6.184;2023-04-15T11:03:38;3.15;;;1.98;;
53052;SDS011;38934;52.690;6.184;2023-04-15T11:06:13;2.92;;;2.00;;
53052;SDS011;38934;52.690;6.184;2023-04-15T11:09:29;3.15;;;1.83;;
53052;SDS011;38934;52.690;6.184;2023-04-15T11:12:16;2.17;;;1.80;;
53052;SDS011;38934;52.690;6.184;2023-04-15T11:14:50;2.15;;;1.70;;
53052;SDS011;38934;52.690;6.184;2023-04-15T11:17:25;1.98;;;1.73;;
53052;SDS011;38934;52.690;6.184;2023-04-15T11:19:52;1.60;;;1.50;;
53052;SDS011;38934;52.690;6.184;2023-04-15T11:22:18;3.25;;;1.90;;
53052;SDS011;38934;52.690;6.184;2023-04-15T11:24:47;3.33;;;1.92;;
53052;SDS011;38934;52.690;6.184;2023-04-15T11:27:23;3.22;;;1.70;;
53052;SDS011;38934;52.690;6.184;2023-04-15T11:29:52;2.83;;;1.80;;
53052;SDS011;38934;52.690;6.184;2023-04-15T11:32:17;2.25;;;1.95;;
53052;SDS011;38934;52.690;6.184;2023-04-15T11:34:44;3.83;;;2.13;;
53052;SDS011;38934;52.690;6.184;2023-04-15T11:37:10;2.05;;;1.70;;
53052;SDS011;38934;52.690;6.184;2023-04-15T11:39:36;2.88;;;1.77;;
53052;SDS011;38934;52.690;6.184;2023-04-15T11:42:02;3.65;;;1.83;;
53052;SDS011;38934;52.690;6.184;2023-04-15T11:44:27;2.65;;;1.70;;
53052;SDS011;38934;52.690;6.184;2023-04-15T11:46:53;1.70;;;1.60;;
53052;SDS011;38934;52.690;6.184;2023-04-15T11:49:29;2.58;;;1.73;;
53052;SDS011;38934;52.690;6.184;2023-04-15T11:51:58;2.55;;;1.80;;
53052;SDS011;38934;52.690;6.184;2023-04-15T11:54:24;1.92;;;1.70;;
53052;SDS011;38934;52.690;6.184;2023-04-15T11:56:50;2.45;;;1.80;;
53052;SDS011;38934;52.690;6.184;2023-04-15T11:59:17;2.10;;;1.90;;
53052;SDS011;38934;52.690;6.184;2023-04-15T12:01:43;2.25;;;2.05;;
53052;SDS011;38934;52.690;6.184;2023-04-15T12:04:19;3.28;;;2.00;;
53052;SDS011;38934;52.690;6.184;2023-04-15T12:06:47;2.55;;;2.00;;
53052;SDS011;38934;52.690;6.184;2023-04-15T12:09:13;2.60;;;2.15;;
53052;SDS011;38934;52.690;6.184;2023-04-15T12:11:47;2.92;;;1.90;;
53052;SDS011;38934;52.690;6.184;2023-04-15T12:16:45;2.60;;;2.30;;
53052;SDS011;38934;52.690;6.184;2023-04-15T12:19:13;3.33;;;2.10;;
53052;SDS011;38934;52.690;6.184;2023-04-15T12:21:43;3.55;;;2.03;;
53052;SDS011;38934;52.690;6.184;2023-04-15T12:24:11;3.95;;;2.33;;
53052;SDS011;38934;52.690;6.184;2023-04-15T12:29:12;3.40;;;2.20;;
53052;SDS011;38934;52.690;6.184;2023-04-15T12:31:46;3.28;;;2.25;;
53052;SDS011;38934;52.690;6.184;2023-04-15T12:34:14;3.53;;;2.28;;
53052;SDS011;38934;52.690;6.184;2023-04-15T12:36:40;5.03;;;2.50;;
53052;SDS011;38934;52.690;6.184;2023-04-15T12:39:07;3.75;;;2.15;;
53052;SDS011;38934;52.690;6.184;2023-04-15T12:41:33;5.18;;;2.38;;
53052;SDS011;38934;52.690;6.184;2023-04-15T12:43:59;6.55;;;2.20;;
53052;SDS011;38934;52.690;6.184;2023-04-15T12:46:25;6.72;;;2.40;;
53052;SDS011;38934;52.690;6.184;2023-04-15T12:48:51;6.85;;;2.70;;
53052;SDS011;38934;52.690;6.184;2023-04-15T12:51:17;4.97;;;2.50;;
53052;SDS011;38934;52.690;6.184;2023-04-15T12:53:48;6.85;;;2.67;;
53052;SDS011;38934;52.690;6.184;2023-04-15T12:56:15;7.45;;;3.10;;
53052;SDS011;38934;52.690;6.184;2023-04-15T12:58:41;4.63;;;2.50;;
53052;SDS011;38934;52.690;6.184;2023-04-15T13:01:07;5.30;;;2.75;;
53052;SDS011;38934;52.690;6.184;2023-04-15T13:03:34;5.88;;;2.60;;
53052;SDS011;38934;52.690;6.184;2023-04-15T13:05:59;6.90;;;2.58;;
53052;SDS011;38934;52.690;6.184;2023-04-15T13:08:26;5.03;;;2.92;;
53052;SDS011;38934;52.690;6.184;2023-04-15T13:10:52;5.15;;;2.47;;
53052;SDS011;38934;52.690;6.184;2023-04-15T13:13:17;5.97;;;3.08;;
53052;SDS011;38934;52.690;6.184;2023-04-15T13:15:43;5.03;;;2.50;;
53052;SDS011;38934;52.690;6.184;2023-04-15T13:18:10;4.53;;;2.30;;
53052;SDS011;38934;52.690;6.184;2023-04-15T13:20:35;6.78;;;2.53;;
53052;SDS011;38934;52.690;6.184;2023-04-15T13:23:01;7.93;;;2.42;;
53052;SDS011;38934;52.690;6.184;2023-04-15T13:25:27;6.00;;;2.58;;
53052;SDS011;38934;52.690;6.184;2023-04-15T13:27:53;7.13;;;2.60;;
53052;SDS011;38934;52.690;6.184;2023-04-15T13:30:19;7.88;;;2.70;;
53052;SDS011;38934;52.690;6.184;2023-04-15T13:32:45;5.70;;;2.50;;
53052;SDS011;38934;52.690;6.184;2023-04-15T13:35:10;8.27;;;2.58;;
53052;SDS011;38934;52.690;6.184;2023-04-15T13:37:36;6.70;;;3.00;;
53052;SDS011;38934;52.690;6.184;2023-04-15T13:40:03;4.88;;;2.05;;
53052;SDS011;38934;52.690;6.184;2023-04-15T13:42:31;6.05;;;2.20;;
53052;SDS011;38934;52.690;6.184;2023-04-15T13:44:57;6.15;;;2.08;;
53052;SDS011;38934;52.690;6.184;2023-04-15T13:47:23;5.50;;;1.92;;
53052;SDS011;38934;52.690;6.184;2023-04-15T13:49:55;6.90;;;2.40;;
53052;SDS011;38934;52.690;6.184;2023-04-15T13:52:21;10.68;;;2.63;;
53052;SDS011;38934;52.690;6.184;2023-04-15T13:54:47;6.95;;;2.30;;
53052;SDS011;38934;52.690;6.184;2023-04-15T14:06:27;4.97;;;2.00;;
53052;SDS011;38934;52.690;6.184;2023-04-15T14:09:03;4.47;;;1.98;;
53052;SDS011;38934;52.690;6.184;2023-04-15T14:11:31;10.65;;;2.72;;
53052;SDS011;38934;52.690;6.184;2023-04-15T14:14:01;6.45;;;2.00;;
53052;SDS011;38934;52.690;6.184;2023-04-15T14:16:27;8.30;;;2.92;;
53052;SDS011;38934;52.690;6.184;2023-04-15T14:18:52;9.57;;;2.17;;
53052;SDS011;38934;52.690;6.184;2023-04-15T14:21:53;9.82;;;2.58;;
53052;SDS011;38934;52.690;6.184;2023-04-15T14:30:46;4.32;;;2.30;;
53052;SDS011;38934;52.690;6.184;2023-04-15T14:33:15;6.28;;;2.20;;
53052;SDS011;38934;52.690;6.184;2023-04-15T14:39:10;6.80;;;1.92;;
53052;SDS011;38934;52.690;6.184;2023-04-15T14:49:09;7.97;;;1.80;;
53052;SDS011;38934;52.690;6.184;2023-04-15T14:51:35;6.13;;;1.90;;
53052;SDS011;38934;52.690;6.184;2023-04-15T14:54:01;4.75;;;1.63;;
53052;SDS011;38934;52.690;6.184;2023-04-15T14:56:27;7.13;;;1.90;;
53052;SDS011;38934;52.690;6.184;2023-04-15T14:58:52;4.40;;;2.17;;
53052;SDS011;38934;52.690;6.184;2023-04-15T15:01:18;6.78;;;2.08;;
53052;SDS011;38934;52.690;6.184;2023-04-15T15:03:45;9.18;;;2.45;;
53052;SDS011;38934;52.690;6.184;2023-04-15T15:06:12;9.15;;;2.08;;
53052;SDS011;38934;52.690;6.184;2023-04-15T15:08:38;9.43;;;2.10;;
53052;SDS011;38934;52.690;6.184;2023-04-15T15:11:03;6.80;;;2.10;;
53052;SDS011;38934;52.690;6.184;2023-04-15T15:13:29;5.88;;;2.50;;
53052;SDS011;38934;52.690;6.184;2023-04-15T15:15:55;10.60;;;2.60;;
53052;SDS011;38934;52.690;6.184;2023-04-15T15:18:21;5.25;;;2.00;;
53052;SDS011;38934;52.690;6.184;2023-04-15T15:20:49;7.28;;;2.50;;
53052;SDS011;38934;52.690;6.184;2023-04-15T15:23:15;11.07;;;3.50;;
53052;SDS011;38934;52.690;6.184;2023-04-15T15:25:41;10.43;;;3.40;;
53052;SDS011;38934;52.690;6.184;2023-04-15T15:28:08;10.13;;;3.50;;
53052;SDS011;38934;52.690;6.184;2023-04-15T15:30:34;6.25;;;2.97;;
53052;SDS011;38934;52.690;6.184;2023-04-15T15:33:00;7.70;;;2.70;;
53052;SDS011;38934;52.690;6.184;2023-04-15T15:35:25;7.10;;;2.40;;
53052;SDS011;38934;52.690;6.184;2023-04-15T15:37:51;5.50;;;2.20;;